sensor_id;sensor_type;location;lat;lon;timestamp;pressure;altitude;pressure_sealevel;temperature;humidity
20077;BME280;12348;42.710;23.378;2023-06-26T00:01:54;94898.91;;;20.18;100.00
20077;BME280;12348;42.710;23.378;2023-06-26T00:04:21;94910.53;;;20.15;100.00
20077;BME280;12348;42.710;23.378;2023-06-26T00:06:48;94902.34;;;20.15;100.00
20077;BME280;12348;42.710;23.378;2023-06-26T00:09:15;94904.22;;;20.10;100.00
20077;BME280;12348;42.710;23.378;2023-06-26T00:11:41;94901.91;;;20.13;100.00
20077;BME280;12348;42.710;23.378;2023-06-26T00:14:11;94898.75;;;20.10;100.00
20077;BME280;12348;42.710;23.378;2023-06-26T00:16:37;94902.97;;;20.08;100.00
20077;BME280;12348;42.710;23.378;2023-06-26T00:19:04;94903.16;;;19.99;100.00
20077;BME280;12348;42.710;23.378;2023-06-26T00:21:31;94898.56;;;20.03;100.00
20077;BME280;12348;42.710;23.378;2023-06-26T00:23:58;94904.41;;;20.02;100.00
20077;BME280;12348;42.710;23.378;2023-06-26T00:26:25;94891.28;;;19.92;100.00
20077;BME280;12348;42.710;23.378;2023-06-26T00:28:52;94898.84;;;19.98;100.00
20077;BME280;12348;42.710;23.378;2023-06-26T00:31:20;94892.94;;;19.96;100.00
20077;BME280;12348;42.710;23.378;2023-06-26T00:33:46;94888.19;;;19.93;100.00
20077;BME280;12348;42.710;23.378;2023-06-26T00:36:13;94891.19;;;19.88;100.00
20077;BME280;12348;42.710;23.378;2023-06-26T00:38:40;94889.41;;;19.96;100.00
20077;BME280;12348;42.710;23.378;2023-06-26T00:41:07;94885.03;;;19.91;100.00
20077;BME280;12348;42.710;23.378;2023-06-26T00:43:38;94885.09;;;19.95;100.00
20077;BME280;12348;42.710;23.378;2023-06-26T00:46:09;94886.31;;;19.97;100.00
20077;BME280;12348;42.710;23.378;2023-06-26T00:48:37;94888.63;;;19.95;100.00
20077;BME280;12348;42.710;23.378;2023-06-26T00:51:04;94882.28;;;19.91;100.00
20077;BME280;12348;42.710;23.378;2023-06-26T00:53:32;94878.13;;;19.97;100.00
20077;BME280;12348;42.710;23.378;2023-06-26T00:55:59;94880.50;;;19.99;100.00
20077;BME280;12348;42.710;23.378;2023-06-26T00:58:26;94868.63;;;19.91;100.00
20077;BME280;12348;42.710;23.378;2023-06-26T01:00:53;94876.75;;;19.88;100.00
20077;BME280;12348;42.710;23.378;2023-06-26T01:03:20;94872.34;;;19.83;100.00
20077;BME280;12348;42.710;23.378;2023-06-26T01:05:49;94866.44;;;19.81;100.00
20077;BME280;12348;42.710;23.378;2023-06-26T01:08:17;94866.97;;;19.71;100.00
20077;BME280;12348;42.710;23.378;2023-06-26T01:10:45;94861.22;;;19.60;100.00
20077;BME280;12348;42.710;23.378;2023-06-26T01:13:12;94866.94;;;19.55;100.00
20077;BME280;12348;42.710;23.378;2023-06-26T01:15:40;94864.41;;;19.46;100.00
20077;BME280;12348;42.710;23.378;2023-06-26T01:18:07;94864.41;;;19.46;100.00
20077;BME280;12348;42.710;23.378;2023-06-26T01:20:36;94862.56;;;19.34;100.00
20077;BME280;12348;42.710;23.378;2023-06-26T01:23:10;94868.53;;;19.24;100.00
20077;BME280;12348;42.710;23.378;2023-06-26T01:25:51;94862.53;;;19.19;100.00
20077;BME280;12348;42.710;23.378;2023-06-26T01:28:24;94864.38;;;19.14;100.00
20077;BME280;12348;42.710;23.378;2023-06-26T01:30:52;94864.66;;;19.09;100.00
20077;BME280;12348;42.710;23.378;2023-06-26T01:33:20;94862.34;;;19.11;100.00
20077;BME280;12348;42.710;23.378;2023-06-26T01:35:47;94862.50;;;19.03;100.00
20077;BME280;12348;42.710;23.378;2023-06-26T01:38:16;94852.97;;;18.97;100.00
20077;BME280;12348;42.710;23.378;2023-06-26T01:40:43;94845.75;;;18.88;100.00
20077;BME280;12348;42.710;23.378;2023-06-26T01:43:15;94851.91;;;18.85;100.00
20077;BME280;12348;42.710;23.378;2023-06-26T01:45:48;94849.28;;;18.89;100.00
20077;BME280;12348;42.710;23.378;2023-06-26T01:48:16;94850.00;;;18.86;100.00
20077;BME280;12348;42.710;23.378;2023-06-26T01:50:47;94840.91;;;18.82;100.00
20077;BME280;12348;42.710;23.378;2023-06-26T01:53:18;94845.47;;;18.78;100.00
20077;BME280;12348;42.710;23.378;2023-06-26T01:55:48;94836.84;;;18.76;100.00
20077;BME280;12348;42.710;23.378;2023-06-26T01:58:19;94834.38;;;18.71;100.00
20077;BME280;12348;42.710;23.378;2023-06-26T02:00:48;94831.41;;;18.76;100.00
20077;BME280;12348;42.710;23.378;2023-06-26T02:03:15;94838.69;;;18.72;100.00
20077;BME280;12348;42.710;23.378;2023-06-26T02:05:43;94837.69;;;18.64;100.00
20077;BME280;12348;42.710;23.378;2023-06-26T02:08:10;94847.34;;;18.61;100.00
20077;BME280;12348;42.710;23.378;2023-06-26T02:10:37;94841.88;;;18.61;100.00
20077;BME280;12348;42.710;23.378;2023-06-26T02:13:04;94838.69;;;18.59;100.00
20077;BME280;12348;42.710;23.378;2023-06-26T02:15:30;94841.88;;;18.61;100.00
20077;BME280;12348;42.710;23.378;2023-06-26T02:17:59;94848.50;;;18.60;100.00
20077;BME280;12348;42.710;23.378;2023-06-26T02:20:25;94850.06;;;18.61;100.00
20077;BME280;12348;42.710;23.378;2023-06-26T02:22:52;94848.03;;;18.58;100.00
20077;BME280;12348;42.710;23.378;2023-06-26T02:25:19;94846.78;;;18.56;100.00
20077;BME280;12348;42.710;23.378;2023-06-26T02:27:46;94848.38;;;18.57;100.00
20077;BME280;12348;42.710;23.378;2023-06-26T02:30:13;94850.75;;;18.58;100.00
20077;BME280;12348;42.710;23.378;2023-06-26T02:32:39;94851.53;;;18.59;100.00
20077;BME280;12348;42.710;23.378;2023-06-26T02:35:08;94850.75;;;18.58;100.00
20077;BME280;12348;42.710;23.378;2023-06-26T02:37:35;94848.59;;;18.64;100.00
20077;BME280;12348;42.710;23.378;2023-06-26T02:40:02;94846.88;;;18.59;100.00
20077;BME280;12348;42.710;23.378;2023-06-26T02:42:31;94845.06;;;18.63;100.00
20077;BME280;12348;42.710;23.378;2023-06-26T02:44:57;94846.66;;;18.64;100.00
20077;BME280;12348;42.710;23.378;2023-06-26T02:47:24;94851.66;;;18.62;100.00
20077;BME280;12348;42.710;23.378;2023-06-26T02:49:51;94850.16;;;18.65;100.00
20077;BME280;12348;42.710;23.378;2023-06-26T02:52:20;94854.16;;;18.55;100.00
20077;BME280;12348;42.710;23.378;2023-06-26T02:54:47;94845.66;;;18.57;100.00
20077;BME280;12348;42.710;23.378;2023-06-26T02:57:14;94852.59;;;18.54;100.00
20077;BME280;12348;42.710;23.378;2023-06-26T02:59:42;94843.25;;;18.55;100.00
20077;BME280;12348;42.710;23.378;2023-06-26T03:02:09;94853.16;;;18.60;100.00
20077;BME280;12348;42.710;23.378;2023-06-26T03:04:36;94851.22;;;18.60;100.00
20077;BME280;12348;42.710;23.378;2023-06-26T03:07:03;94847.25;;;18.58;100.00
20077;BME280;12348;42.710;23.378;2023-06-26T03:09:31;94851.84;;;18.70;100.00
20077;BME280;12348;42.710;23.378;2023-06-26T03:11:58;94860.94;;;18.74;100.00
20077;BME280;12348;42.710;23.378;2023-06-26T03:14:25;94859.09;;;18.78;100.00
20077;BME280;12348;42.710;23.378;2023-06-26T03:16:52;94852.53;;;18.79;100.00
20077;BME280;12348;42.710;23.378;2023-06-26T03:19:22;94858.97;;;18.86;100.00
20077;BME280;12348;42.710;23.378;2023-06-26T03:21:50;94853.06;;;18.84;100.00
20077;BME280;12348;42.710;23.378;2023-06-26T03:24:17;94855.00;;;18.84;100.00
20077;BME280;12348;42.710;23.378;2023-06-26T03:26:45;94859.50;;;18.92;100.00
20077;BME280;12348;42.710;23.378;2023-06-26T03:29:14;94857.41;;;19.01;100.00
20077;BME280;12348;42.710;23.378;2023-06-26T03:31:40;94858.63;;;19.04;100.00
20077;BME280;12348;42.710;23.378;2023-06-26T03:34:07;94855.41;;;19.14;100.00
20077;BME280;12348;42.710;23.378;2023-06-26T03:36:34;94851.53;;;19.31;100.00
20077;BME280;12348;42.710;23.378;2023-06-26T03:39:01;94855.66;;;19.41;100.00
20077;BME280;12348;42.710;23.378;2023-06-26T03:41:29;94859.03;;;19.50;100.00
20077;BME280;12348;42.710;23.378;2023-06-26T03:43:57;94871.44;;;19.47;100.00
20077;BME280;12348;42.710;23.378;2023-06-26T03:46:25;94860.34;;;19.56;100.00
20077;BME280;12348;42.710;23.378;2023-06-26T03:48:52;94863.34;;;19.67;100.00
20077;BME280;12348;42.710;23.378;2023-06-26T03:51:19;94863.59;;;19.61;100.00
20077;BME280;12348;42.710;23.378;2023-06-26T03:53:46;94865.66;;;19.65;100.00
20077;BME280;12348;42.710;23.378;2023-06-26T03:56:13;94866.16;;;19.86;100.00
20077;BME280;12348;42.710;23.378;2023-06-26T03:58:40;94851.09;;;19.76;100.00
20077;BME280;12348;42.710;23.378;2023-06-26T04:01:08;94858.03;;;20.05;100.00
20077;BME280;12348;42.710;23.378;2023-06-26T04:03:35;94852.09;;;20.03;100.00
20077;BME280;12348;42.710;23.378;2023-06-26T04:06:01;94858.72;;;20.02;100.00
20077;BME280;12348;42.710;23.378;2023-06-26T04:08:28;94853.97;;;19.99;100.00
20077;BME280;12348;42.710;23.378;2023-06-26T04:10:55;94867.00;;;20.06;100.00
20077;BME280;12348;42.710;23.378;2023-06-26T04:13:24;94864.19;;;20.02;100.00
20077;BME280;12348;42.710;23.378;2023-06-26T04:15:50;94867.59;;;20.15;100.00
20077;BME280;12348;42.710;23.378;2023-06-26T04:18:18;94865.19;;;20.49;100.00
20077;BME280;12348;42.710;23.378;2023-06-26T04:21:04;94863.44;;;20.41;100.00
20077;BME280;12348;42.710;23.378;2023-06-26T04:23:31;94868.28;;;20.47;100.00
20077;BME280;12348;42.710;23.378;2023-06-26T04:25:58;94871.00;;;20.28;100.00
20077;BME280;12348;42.710;23.378;2023-06-26T04:28:25;94866.56;;;20.39;100.00
20077;BME280;12348;42.710;23.378;2023-06-26T04:30:52;94877.09;;;20.56;100.00
20077;BME280;12348;42.710;23.378;2023-06-26T04:33:20;94870.47;;;20.57;100.00
20077;BME280;12348;42.710;23.378;2023-06-26T04:35:47;94877.59;;;20.81;100.00
20077;BME280;12348;42.710;23.378;2023-06-26T04:38:15;94879.09;;;20.79;100.00
20077;BME280;12348;42.710;23.378;2023-06-26T04:40:41;94880.28;;;20.78;100.00
20077;BME280;12348;42.710;23.378;2023-06-26T04:43:08;94878.75;;;20.80;100.00
20077;BME280;12348;42.710;23.378;2023-06-26T04:45:35;94875.22;;;20.80;100.00
20077;BME280;12348;42.710;23.378;2023-06-26T04:48:02;94868.31;;;20.86;100.00
20077;BME280;12348;42.710;23.378;2023-06-26T04:50:31;94877.31;;;20.87;100.00
20077;BME280;12348;42.710;23.378;2023-06-26T04:52:59;94876.50;;;20.86;100.00
20077;BME280;12348;42.710;23.378;2023-06-26T04:55:26;94883.63;;;21.10;100.00
20077;BME280;12348;42.710;23.378;2023-06-26T04:57:53;94882.75;;;21.25;100.00
20077;BME280;12348;42.710;23.378;2023-06-26T05:00:20;94874.78;;;21.40;100.00
20077;BME280;12348;42.710;23.378;2023-06-26T05:02:48;94877.66;;;21.70;100.00
20077;BME280;12348;42.710;23.378;2023-06-26T05:05:14;94877.56;;;21.89;100.00
20077;BME280;12348;42.710;23.378;2023-06-26T05:07:43;94873.88;;;22.05;100.00
20077;BME280;12348;42.710;23.378;2023-06-26T05:10:10;94883.16;;;21.96;100.00
20077;BME280;12348;42.710;23.378;2023-06-26T05:12:36;94885.56;;;21.75;100.00
20077;BME280;12348;42.710;23.378;2023-06-26T05:15:04;94888.38;;;22.05;100.00
20077;BME280;12348;42.710;23.378;2023-06-26T05:17:31;94884.78;;;22.01;100.00
20077;BME280;12348;42.710;23.378;2023-06-26T05:19:58;94897.16;;;22.14;100.00
20077;BME280;12348;42.710;23.378;2023-06-26T05:22:26;94893.03;;;22.01;100.00
20077;BME280;12348;42.710;23.378;2023-06-26T05:24:55;94890.59;;;21.96;100.00
20077;BME280;12348;42.710;23.378;2023-06-26T05:27:25;94894.56;;;21.75;100.00
20077;BME280;12348;42.710;23.378;2023-06-26T05:29:52;94893.59;;;21.87;100.00
20077;BME280;12348;42.710;23.378;2023-06-26T05:32:20;94889.91;;;22.02;100.00
20077;BME280;12348;42.710;23.378;2023-06-26T05:34:47;94897.22;;;22.18;100.00
20077;BME280;12348;42.710;23.378;2023-06-26T05:37:19;94888.41;;;22.62;100.00
20077;BME280;12348;42.710;23.378;2023-06-26T05:39:47;94893.59;;;22.67;100.00
20077;BME280;12348;42.710;23.378;2023-06-26T05:42:17;94891.25;;;22.99;100.00
20077;BME280;12348;42.710;23.378;2023-06-26T05:44:43;94892.38;;;22.94;100.00
20077;BME280;12348;42.710;23.378;2023-06-26T05:47:10;94889.75;;;23.05;100.00
20077;BME280;12348;42.710;23.378;2023-06-26T05:49:37;94896.59;;;23.22;100.00
20077;BME280;12348;42.710;23.378;2023-06-26T05:52:04;94888.41;;;22.92;100.00
20077;BME280;12348;42.710;23.378;2023-06-26T05:54:32;94892.72;;;23.23;100.00
20077;BME280;12348;42.710;23.378;2023-06-26T05:56:59;94897.84;;;23.28;100.00
20077;BME280;12348;42.710;23.378;2023-06-26T05:59:29;94903.44;;;23.35;100.00
20077;BME280;12348;42.710;23.378;2023-06-26T06:01:57;94900.88;;;23.16;100.00
20077;BME280;12348;42.710;23.378;2023-06-26T06:04:24;94899.38;;;23.26;100.00
20077;BME280;12348;42.710;23.378;2023-06-26T06:06:51;94902.03;;;23.97;100.00
20077;BME280;12348;42.710;23.378;2023-06-26T06:09:18;94908.50;;;24.22;100.00
20077;BME280;12348;42.710;23.378;2023-06-26T06:11:45;94902.16;;;24.73;100.00
20077;BME280;12348;42.710;23.378;2023-06-26T06:14:12;94901.19;;;25.24;100.00
20077;BME280;12348;42.710;23.378;2023-06-26T06:16:40;94902.78;;;25.25;100.00
20077;BME280;12348;42.710;23.378;2023-06-26T06:19:07;94900.53;;;26.02;100.00
20077;BME280;12348;42.710;23.378;2023-06-26T06:21:38;94900.88;;;25.58;100.00
20077;BME280;12348;42.710;23.378;2023-06-26T06:24:05;94904.03;;;25.53;100.00
20077;BME280;12348;42.710;23.378;2023-06-26T06:26:32;94902.00;;;25.18;100.00
20077;BME280;12348;42.710;23.378;2023-06-26T06:28:59;94897.31;;;25.32;100.00
20077;BME280;12348;42.710;23.378;2023-06-26T06:31:26;94893.41;;;25.76;100.00
20077;BME280;12348;42.710;23.378;2023-06-26T06:33:55;94893.06;;;25.99;100.00
20077;BME280;12348;42.710;23.378;2023-06-26T06:36:21;94894.81;;;27.06;100.00
20077;BME280;12348;42.710;23.378;2023-06-26T06:38:48;94895.59;;;27.10;96.62
20077;BME280;12348;42.710;23.378;2023-06-26T06:41:15;94891.13;;;28.87;86.02
20077;BME280;12348;42.710;23.378;2023-06-26T06:43:42;94887.75;;;31.45;73.68
20077;BME280;12348;42.710;23.378;2023-06-26T06:46:09;94889.34;;;31.98;66.04
20077;BME280;12348;42.710;23.378;2023-06-26T06:48:36;94882.75;;;33.28;61.87
20077;BME280;12348;42.710;23.378;2023-06-26T06:51:04;94889.91;;;33.29;61.04
20077;BME280;12348;42.710;23.378;2023-06-26T06:53:31;94891.63;;;34.55;56.37
20077;BME280;12348;42.710;23.378;2023-06-26T06:55:58;94893.88;;;35.69;52.68
20077;BME280;12348;42.710;23.378;2023-06-26T06:58:25;94886.59;;;36.62;48.18
20077;BME280;12348;42.710;23.378;2023-06-26T07:00:51;94885.41;;;38.54;43.12
20077;BME280;12348;42.710;23.378;2023-06-26T07:03:18;94883.31;;;35.74;48.45
20077;BME280;12348;42.710;23.378;2023-06-26T07:05:46;94890.41;;;33.12;59.02
20077;BME280;12348;42.710;23.378;2023-06-26T07:08:14;94888.03;;;30.24;70.44
20077;BME280;12348;42.710;23.378;2023-06-26T07:10:41;94885.03;;;29.60;75.84
20077;BME280;12348;42.710;23.378;2023-06-26T07:13:08;94884.78;;;31.52;69.04
20077;BME280;12348;42.710;23.378;2023-06-26T07:15:34;94873.38;;;31.82;66.73
20077;BME280;12348;42.710;23.378;2023-06-26T07:18:01;94879.31;;;33.37;60.47
20077;BME280;12348;42.710;23.378;2023-06-26T07:20:28;94876.22;;;33.86;59.66
20077;BME280;12348;42.710;23.378;2023-06-26T07:22:55;94885.59;;;35.35;54.38
20077;BME280;12348;42.710;23.378;2023-06-26T07:25:23;94878.34;;;34.20;58.00
20077;BME280;12348;42.710;23.378;2023-06-26T07:27:49;94884.63;;;36.22;47.73
20077;BME280;12348;42.710;23.378;2023-06-26T07:30:16;94881.16;;;35.03;52.45
20077;BME280;12348;42.710;23.378;2023-06-26T07:32:45;94885.16;;;35.99;48.97
20077;BME280;12348;42.710;23.378;2023-06-26T07:35:12;94875.81;;;34.61;54.00
20077;BME280;12348;42.710;23.378;2023-06-26T07:37:38;94869.06;;;35.90;48.77
20077;BME280;12348;42.710;23.378;2023-06-26T07:40:07;94874.84;;;34.55;51.81
20077;BME280;12348;42.710;23.378;2023-06-26T07:42:35;94872.00;;;31.38;62.40
20077;BME280;12348;42.710;23.378;2023-06-26T07:45:02;94878.47;;;32.20;61.31
20077;BME280;12348;42.710;23.378;2023-06-26T07:47:35;94868.13;;;33.37;57.07
20077;BME280;12348;42.710;23.378;2023-06-26T07:50:02;94871.75;;;35.62;50.10
20077;BME280;12348;42.710;23.378;2023-06-26T07:52:28;94879.41;;;34.48;50.92
20077;BME280;12348;42.710;23.378;2023-06-26T07:54:55;94882.38;;;36.57;46.05
20077;BME280;12348;42.710;23.378;2023-06-26T07:57:22;94876.31;;;37.23;43.71
20077;BME280;12348;42.710;23.378;2023-06-26T07:59:50;94875.66;;;37.37;43.07
20077;BME280;12348;42.710;23.378;2023-06-26T08:02:17;94881.38;;;37.71;42.92
20077;BME280;12348;42.710;23.378;2023-06-26T08:04:44;94877.56;;;36.58;45.38
20077;BME280;12348;42.710;23.378;2023-06-26T08:07:10;94889.06;;;35.70;46.79
20077;BME280;12348;42.710;23.378;2023-06-26T08:09:39;94867.94;;;33.44;54.35
20077;BME280;12348;42.710;23.378;2023-06-26T08:12:06;94876.53;;;34.52;53.04
20077;BME280;12348;42.710;23.378;2023-06-26T08:14:33;94866.66;;;35.70;45.55
20077;BME280;12348;42.710;23.378;2023-06-26T08:17:01;94869.56;;;36.38;44.96
20077;BME280;12348;42.710;23.378;2023-06-26T08:19:28;94862.94;;;35.73;47.01
20077;BME280;12348;42.710;23.378;2023-06-26T08:21:55;94874.69;;;33.85;52.41
20077;BME280;12348;42.710;23.378;2023-06-26T08:24:22;94875.31;;;32.02;57.89
20077;BME280;12348;42.710;23.378;2023-06-26T08:26:48;94873.66;;;30.52;63.25
20077;BME280;12348;42.710;23.378;2023-06-26T08:29:15;94864.25;;;32.47;58.42
20077;BME280;12348;42.710;23.378;2023-06-26T08:31:42;94870.16;;;31.11;61.73
20077;BME280;12348;42.710;23.378;2023-06-26T08:34:11;94871.84;;;31.05;62.14
20077;BME280;12348;42.710;23.378;2023-06-26T08:36:37;94866.19;;;31.49;60.98
20077;BME280;12348;42.710;23.378;2023-06-26T08:39:05;94870.84;;;32.99;55.87
20077;BME280;12348;42.710;23.378;2023-06-26T08:41:33;94881.19;;;34.08;53.23
20077;BME280;12348;42.710;23.378;2023-06-26T08:44:01;94867.94;;;35.78;47.34
20077;BME280;12348;42.710;23.378;2023-06-26T08:46:28;94871.88;;;35.59;47.65
20077;BME280;12348;42.710;23.378;2023-06-26T08:48:57;94872.94;;;36.33;44.44
20077;BME280;12348;42.710;23.378;2023-06-26T08:51:29;94873.75;;;35.53;45.82
20077;BME280;12348;42.710;23.378;2023-06-26T08:53:58;94869.81;;;33.35;50.47
20077;BME280;12348;42.710;23.378;2023-06-26T08:56:28;94862.72;;;31.97;57.56
20077;BME280;12348;42.710;23.378;2023-06-26T08:58:57;94865.97;;;30.13;65.62
20077;BME280;12348;42.710;23.378;2023-06-26T09:01:24;94874.19;;;29.97;64.92
20077;BME280;12348;42.710;23.378;2023-06-26T09:03:52;94876.00;;;28.57;70.56
20077;BME280;12348;42.710;23.378;2023-06-26T09:06:18;94875.00;;;28.74;71.68
20077;BME280;12348;42.710;23.378;2023-06-26T09:08:47;94871.06;;;28.75;72.28
20077;BME280;12348;42.710;23.378;2023-06-26T09:11:14;94864.72;;;29.09;72.12
20077;BME280;12348;42.710;23.378;2023-06-26T09:13:40;94863.47;;;29.14;69.67
20077;BME280;12348;42.710;23.378;2023-06-26T09:16:08;94862.59;;;29.20;71.94
20077;BME280;12348;42.710;23.378;2023-06-26T09:18:35;94866.88;;;28.94;70.82
20077;BME280;12348;42.710;23.378;2023-06-26T09:21:06;94858.59;;;28.91;72.60
20077;BME280;12348;42.710;23.378;2023-06-26T09:23:33;94861.94;;;28.37;74.93
20077;BME280;12348;42.710;23.378;2023-06-26T09:26:03;94858.88;;;27.79;79.33
20077;BME280;12348;42.710;23.378;2023-06-26T09:28:30;94856.41;;;27.89;77.46
20077;BME280;12348;42.710;23.378;2023-06-26T09:31:02;94864.09;;;27.63;80.07
20077;BME280;12348;42.710;23.378;2023-06-26T09:33:33;94856.91;;;27.73;78.79
20077;BME280;12348;42.710;23.378;2023-06-26T09:36:01;94855.44;;;27.58;77.13
20077;BME280;12348;42.710;23.378;2023-06-26T09:38:28;94850.94;;;27.82;75.81
20077;BME280;12348;42.710;23.378;2023-06-26T09:40:55;94850.41;;;28.01;76.61
20077;BME280;12348;42.710;23.378;2023-06-26T09:43:23;94845.09;;;28.59;73.00
20077;BME280;12348;42.710;23.378;2023-06-26T09:45:50;94850.03;;;29.70;68.69
20077;BME280;12348;42.710;23.378;2023-06-26T09:48:17;94856.59;;;29.53;68.41
20077;BME280;12348;42.710;23.378;2023-06-26T09:50:44;94858.88;;;29.31;69.22
20077;BME280;12348;42.710;23.378;2023-06-26T09:53:12;94862.53;;;28.56;68.69
20077;BME280;12348;42.710;23.378;2023-06-26T09:55:40;94863.38;;;28.08;69.82
20077;BME280;12348;42.710;23.378;2023-06-26T09:58:10;94869.31;;;27.50;74.60
20077;BME280;12348;42.710;23.378;2023-06-26T10:00:42;94860.75;;;27.34;75.47
20077;BME280;12348;42.710;23.378;2023-06-26T10:03:10;94867.63;;;26.94;78.91
20077;BME280;12348;42.710;23.378;2023-06-26T10:05:38;94867.25;;;26.84;78.62
20077;BME280;12348;42.710;23.378;2023-06-26T10:08:05;94864.19;;;26.61;79.10
20077;BME280;12348;42.710;23.378;2023-06-26T10:10:33;94872.16;;;26.05;83.37
20077;BME280;12348;42.710;23.378;2023-06-26T10:13:06;94875.69;;;25.56;90.10
20077;BME280;12348;42.710;23.378;2023-06-26T10:15:35;94877.94;;;25.11;100.00
20077;BME280;12348;42.710;23.378;2023-06-26T10:18:05;94869.66;;;24.34;100.00
20077;BME280;12348;42.710;23.378;2023-06-26T10:20:32;94876.47;;;23.11;100.00
20077;BME280;12348;42.710;23.378;2023-06-26T10:23:00;94859.06;;;22.36;100.00
20077;BME280;12348;42.710;23.378;2023-06-26T10:25:30;94865.03;;;21.65;100.00
20077;BME280;12348;42.710;23.378;2023-06-26T10:27:59;94864.56;;;21.37;100.00
20077;BME280;12348;42.710;23.378;2023-06-26T10:30:30;94874.75;;;21.36;100.00
20077;BME280;12348;42.710;23.378;2023-06-26T10:32:59;94876.50;;;21.48;100.00
20077;BME280;12348;42.710;23.378;2023-06-26T10:35:30;94856.94;;;21.99;100.00
20077;BME280;12348;42.710;23.378;2023-06-26T10:38:00;94864.69;;;22.46;100.00
20077;BME280;12348;42.710;23.378;2023-06-26T10:40:28;94860.09;;;22.88;100.00
20077;BME280;12348;42.710;23.378;2023-06-26T10:43:06;94853.28;;;23.45;100.00
20077;BME280;12348;42.710;23.378;2023-06-26T10:45:34;94864.63;;;23.85;100.00
20077;BME280;12348;42.710;23.378;2023-06-26T10:48:02;94859.06;;;24.36;100.00
20077;BME280;12348;42.710;23.378;2023-06-26T10:50:31;94849.38;;;24.60;100.00
20077;BME280;12348;42.710;23.378;2023-06-26T10:53:15;94854.97;;;24.82;100.00
20077;BME280;12348;42.710;23.378;2023-06-26T10:55:48;94857.13;;;25.38;100.00
20077;BME280;12348;42.710;23.378;2023-06-26T10:58:32;94837.06;;;25.77;100.00
20077;BME280;12348;42.710;23.378;2023-06-26T11:01:17;94838.63;;;26.18;98.31
20077;BME280;12348;42.710;23.378;2023-06-26T11:03:47;94844.91;;;26.47;95.63
20077;BME280;12348;42.710;23.378;2023-06-26T11:06:18;94833.06;;;26.53;89.13
20077;BME280;12348;42.710;23.378;2023-06-26T11:08:48;94832.44;;;27.05;85.40
20077;BME280;12348;42.710;23.378;2023-06-26T11:11:15;94833.66;;;27.63;82.09
20077;BME280;12348;42.710;23.378;2023-06-26T11:13:44;94830.81;;;27.77;80.69
20077;BME280;12348;42.710;23.378;2023-06-26T11:16:13;94827.31;;;28.56;75.61
20077;BME280;12348;42.710;23.378;2023-06-26T11:18:40;94838.81;;;29.19;72.92
20077;BME280;12348;42.710;23.378;2023-06-26T11:21:07;94831.72;;;29.45;71.12
20077;BME280;12348;42.710;23.378;2023-06-26T11:23:36;94825.81;;;28.82;72.54
20077;BME280;12348;42.710;23.378;2023-06-26T11:26:16;94827.56;;;28.69;74.79
20077;BME280;12348;42.710;23.378;2023-06-26T11:28:50;94834.94;;;29.71;72.50
20077;BME280;12348;42.710;23.378;2023-06-26T11:31:24;94831.56;;;29.83;69.93
20077;BME280;12348;42.710;23.378;2023-06-26T11:33:51;94835.00;;;29.91;69.95
20077;BME280;12348;42.710;23.378;2023-06-26T11:36:18;94834.00;;;29.23;73.26
20077;BME280;12348;42.710;23.378;2023-06-26T11:38:46;94831.06;;;29.07;73.82
20077;BME280;12348;42.710;23.378;2023-06-26T11:41:18;94820.00;;;28.39;75.66
20077;BME280;12348;42.710;23.378;2023-06-26T11:43:45;94819.81;;;28.53;70.56
20077;BME280;12348;42.710;23.378;2023-06-26T11:46:12;94818.94;;;28.22;70.28
20077;BME280;12348;42.710;23.378;2023-06-26T11:48:39;94803.97;;;28.57;68.09
20077;BME280;12348;42.710;23.378;2023-06-26T11:51:06;94810.91;;;28.72;68.04
20077;BME280;12348;42.710;23.378;2023-06-26T11:53:39;94816.13;;;28.25;68.76
20077;BME280;12348;42.710;23.378;2023-06-26T11:56:10;94818.91;;;28.63;71.12
20077;BME280;12348;42.710;23.378;2023-06-26T11:58:56;94819.88;;;29.14;65.40
20077;BME280;12348;42.710;23.378;2023-06-26T12:01:23;94823.00;;;29.74;64.30
20077;BME280;12348;42.710;23.378;2023-06-26T12:03:50;94820.75;;;29.89;65.14
20077;BME280;12348;42.710;23.378;2023-06-26T12:06:17;94818.03;;;30.09;64.84
20077;BME280;12348;42.710;23.378;2023-06-26T12:08:45;94819.84;;;29.45;65.38
20077;BME280;12348;42.710;23.378;2023-06-26T12:11:14;94811.91;;;29.16;66.83
20077;BME280;12348;42.710;23.378;2023-06-26T12:13:41;94815.78;;;28.61;65.90
20077;BME280;12348;42.710;23.378;2023-06-26T12:16:08;94812.88;;;28.72;65.96
20077;BME280;12348;42.710;23.378;2023-06-26T12:18:35;94815.03;;;28.57;67.07
20077;BME280;12348;42.710;23.378;2023-06-26T12:21:02;94816.66;;;28.55;67.27
20077;BME280;12348;42.710;23.378;2023-06-26T12:23:32;94814.34;;;28.49;70.50
20077;BME280;12348;42.710;23.378;2023-06-26T12:25:59;94812.44;;;28.01;74.58
20077;BME280;12348;42.710;23.378;2023-06-26T12:28:35;94813.94;;;28.10;70.78
20077;BME280;12348;42.710;23.378;2023-06-26T12:31:15;94812.50;;;27.94;68.02
20077;BME280;12348;42.710;23.378;2023-06-26T12:33:42;94805.22;;;27.59;70.90
20077;BME280;12348;42.710;23.378;2023-06-26T12:36:12;94822.84;;;27.31;71.86
20077;BME280;12348;42.710;23.378;2023-06-26T12:38:40;94820.28;;;27.58;73.58
20077;BME280;12348;42.710;23.378;2023-06-26T12:41:12;94824.09;;;27.23;73.94
20077;BME280;12348;42.710;23.378;2023-06-26T12:43:41;94824.78;;;27.34;75.17
20077;BME280;12348;42.710;23.378;2023-06-26T12:46:08;94821.75;;;27.14;75.45
20077;BME280;12348;42.710;23.378;2023-06-26T12:48:38;94823.13;;;27.44;75.44
20077;BME280;12348;42.710;23.378;2023-06-26T12:51:10;94818.13;;;27.24;79.46